Terminal Aerodrome Forecast
Issued by NWS

Home | Current Version | Previous Version | Text Only | Print | Product List | Glossary On
Versions: 1 2 3 4 5 6 7 8 9 10 11 12 13
000
FTPQ31 PGUM 222322
TAFGUM
TAF

TAF
PTRO 222322Z 2300/2324 07011KT P6SM VCSH SCT016 BKN120
      TEMPO 2300/2304 -SHRA BKN016 BKN120=

USA.gov is the U.S. government's official web portal to all federal, state and local government web resources and services.